AAY209 KORD-KJFK
Flight info
| Callsign | AAY209 |
|---|---|
| Flight time | 2h 57m |
| Altitude | 37000 |
| Route | DUFEE LOGGR HAAKK DOXXY SOSIC JHW Q476 WLKES PUCKY1 |
| Aircraft | A320/M-SDE3FGHIRWY/LB1 |
Departure
| Time | 2026-05-06 14:06 |
|---|---|
| Airport | Chicago O'Hare International Airport (KORD) |
Arrival
| Time | 2026-05-06 17:03 |
|---|---|
| Airport | John F. Kennedy International Airport (KJFK) |
| Time | Latitude | Longitude | Altitude | Speed | Heading |
|---|---|---|---|---|---|
| 2026-05-06 13:50 | 41.97359 | -87.88502 | 660 ft | 0 kts | 359° |
| 2026-05-06 13:56 | 41.97343 | -87.88502 | 660 ft | 4 kts | 359° |
| 2026-05-06 13:56 | 41.97316 | -87.88502 | 650 ft | 4 kts | 2° |
| 2026-05-06 13:57 | 41.97290 | -87.88505 | 660 ft | 4 kts | 18° |
| 2026-05-06 13:57 | 41.97271 | -87.88520 | 660 ft | 4 kts | 81° |
| 2026-05-06 13:57 | 41.97270 | -87.88531 | 660 ft | 0 kts | 90° |
| 2026-05-06 14:01 | 41.97270 | -87.88517 | 659 ft | 4 kts | 90° |
| 2026-05-06 14:02 | 41.97270 | -87.88450 | 659 ft | 10 kts | 90° |
| 2026-05-06 14:02 | 41.97228 | -87.88360 | 660 ft | 14 kts | 152° |
| 2026-05-06 14:02 | 41.97198 | -87.88229 | 660 ft | 18 kts | 89° |
| 2026-05-06 14:02 | 41.97193 | -87.88069 | 660 ft | 13 kts | 121° |
| 2026-05-06 14:03 | 41.97103 | -87.88037 | 662 ft | 15 kts | 175° |
| 2026-05-06 14:03 | 41.97039 | -87.88132 | 663 ft | 16 kts | 235° |
| 2026-05-06 14:03 | 41.96983 | -87.88125 | 665 ft | 8 kts | 121° |
| 2026-05-06 14:03 | 41.96957 | -87.88059 | 666 ft | 10 kts | 163° |
| 2026-05-06 14:04 | 41.96883 | -87.88107 | 665 ft | 10 kts | 222° |
| 2026-05-06 14:04 | 41.96881 | -87.88110 | 665 ft | 0 kts | 222° |
| 2026-05-06 14:05 | 41.96819 | -87.88186 | 663 ft | 44 kts | 222° |
| 2026-05-06 14:05 | 41.96398 | -87.88681 | 670 ft | 112 kts | 221° |
| 2026-05-06 14:05 | 41.95676 | -87.89531 | 730 ft | 156 kts | 221° |
| 2026-05-06 14:05 | 41.94848 | -87.90501 | 1086 ft | 171 kts | 221° |
| 2026-05-06 14:06 | 41.93906 | -87.91607 | 1561 ft | 190 kts | 222° |
| 2026-05-06 14:06 | 41.92861 | -87.92847 | 1957 ft | 211 kts | 223° |
| 2026-05-06 14:06 | 41.91685 | -87.94208 | 2326 ft | 236 kts | 217° |
| 2026-05-06 14:06 | 41.90149 | -87.94959 | 2739 ft | 258 kts | 181° |
| 2026-05-06 14:07 | 41.88430 | -87.94286 | 3472 ft | 267 kts | 144° |
| 2026-05-06 14:07 | 41.87266 | -87.92354 | 4275 ft | 272 kts | 109° |
| 2026-05-06 14:07 | 41.87099 | -87.89880 | 5053 ft | 275 kts | 74° |
| 2026-05-06 14:07 | 41.87893 | -87.87657 | 5857 ft | 275 kts | 53° |
| 2026-05-06 14:08 | 41.88983 | -87.85519 | 6659 ft | 280 kts | 52° |
| 2026-05-06 14:08 | 41.90097 | -87.83342 | 7416 ft | 285 kts | 52° |
| 2026-05-06 14:08 | 41.91228 | -87.81140 | 8179 ft | 290 kts | 52° |
| 2026-05-06 14:08 | 41.92375 | -87.78879 | 8944 ft | 297 kts | 55° |
| 2026-05-06 14:09 | 41.93320 | -87.76379 | 9701 ft | 305 kts | 64° |
| 2026-05-06 14:09 | 41.94082 | -87.73684 | 10320 ft | 315 kts | 68° |
| 2026-05-06 14:09 | 41.94795 | -87.70782 | 10523 ft | 339 kts | 70° |
| 2026-05-06 14:09 | 41.95526 | -87.67675 | 10863 ft | 356 kts | 71° |
| 2026-05-06 14:10 | 41.96290 | -87.64469 | 11450 ft | 364 kts | 70° |
| 2026-05-06 14:10 | 41.97091 | -87.61214 | 12076 ft | 370 kts | 70° |
| 2026-05-06 14:10 | 41.97929 | -87.57905 | 12692 ft | 377 kts | 70° |
| 2026-05-06 14:10 | 41.98798 | -87.54542 | 13298 ft | 384 kts | 70° |
| 2026-05-06 14:11 | 41.99690 | -87.51129 | 13888 ft | 391 kts | 70° |
| 2026-05-06 14:11 | 42.00597 | -87.47664 | 14422 ft | 397 kts | 70° |
| 2026-05-06 14:11 | 42.01521 | -87.44131 | 14967 ft | 402 kts | 70° |
| 2026-05-06 14:11 | 42.02451 | -87.40562 | 15515 ft | 407 kts | 70° |
| 2026-05-06 14:12 | 42.03392 | -87.36940 | 16067 ft | 412 kts | 70° |
| 2026-05-06 14:12 | 42.04342 | -87.33270 | 16596 ft | 418 kts | 70° |
| 2026-05-06 14:12 | 42.05287 | -87.29606 | 17117 ft | 422 kts | 70° |
| 2026-05-06 14:12 | 42.06269 | -87.25788 | 17664 ft | 427 kts | 70° |
| 2026-05-06 14:13 | 42.07229 | -87.22049 | 18199 ft | 432 kts | 70° |
| 2026-05-06 14:13 | 42.08228 | -87.18159 | 18676 ft | 437 kts | 70° |
| 2026-05-06 14:13 | 42.09226 | -87.14269 | 19153 ft | 440 kts | 70° |
| 2026-05-06 14:13 | 42.10231 | -87.10349 | 19642 ft | 444 kts | 70° |
| 2026-05-06 14:14 | 42.11057 | -87.06327 | 20123 ft | 448 kts | 80° |
| 2026-05-06 14:14 | 42.11420 | -87.02162 | 20600 ft | 450 kts | 90° |
| 2026-05-06 14:14 | 42.11559 | -86.97987 | 21078 ft | 453 kts | 90° |
| 2026-05-06 14:14 | 42.11657 | -86.95125 | 21408 ft | 456 kts | 90° |
| 2026-05-06 14:15 | 42.11859 | -86.89440 | 22027 ft | 460 kts | 90° |
| 2026-05-06 14:15 | 42.11967 | -86.86519 | 22350 ft | 463 kts | 90° |
| 2026-05-06 14:15 | 42.12181 | -86.80750 | 22976 ft | 467 kts | 90° |
| 2026-05-06 14:15 | 42.12340 | -86.76363 | 23429 ft | 471 kts | 90° |
| 2026-05-06 14:16 | 42.12494 | -86.71941 | 23832 ft | 474 kts | 90° |
| 2026-05-06 14:16 | 42.12643 | -86.67501 | 24210 ft | 477 kts | 90° |
| 2026-05-06 14:16 | 42.12745 | -86.64464 | 24466 ft | 479 kts | 90° |
| 2026-05-06 14:16 | 42.12897 | -86.59969 | 24834 ft | 482 kts | 90° |
| 2026-05-06 14:17 | 42.13048 | -86.55453 | 25171 ft | 484 kts | 90° |
| 2026-05-06 14:17 | 42.13198 | -86.50967 | 25544 ft | 487 kts | 90° |
| 2026-05-06 14:17 | 42.13352 | -86.46341 | 25899 ft | 489 kts | 90° |
| 2026-05-06 14:17 | 42.13500 | -86.41751 | 26251 ft | 491 kts | 90° |
| 2026-05-06 14:18 | 42.13644 | -86.37214 | 26592 ft | 494 kts | 90° |
| 2026-05-06 14:18 | 42.13791 | -86.32560 | 26932 ft | 496 kts | 90° |
| 2026-05-06 14:18 | 42.13936 | -86.27884 | 27297 ft | 499 kts | 90° |
| 2026-05-06 14:18 | 42.14078 | -86.23192 | 27596 ft | 502 kts | 90° |
| 2026-05-06 14:19 | 42.14217 | -86.18483 | 27918 ft | 504 kts | 90° |
| 2026-05-06 14:19 | 42.14352 | -86.13767 | 28251 ft | 505 kts | 90° |
| 2026-05-06 14:19 | 42.14473 | -86.09012 | 28582 ft | 507 kts | 91° |
| 2026-05-06 14:19 | 42.14516 | -86.04249 | 28895 ft | 508 kts | 92° |
| 2026-05-06 14:20 | 42.14488 | -85.99542 | 29192 ft | 510 kts | 93° |
| 2026-05-06 14:20 | 42.14417 | -85.94755 | 29484 ft | 512 kts | 94° |
| 2026-05-06 14:20 | 42.14330 | -85.89887 | 29773 ft | 514 kts | 94° |
| 2026-05-06 14:20 | 42.14253 | -85.85123 | 30044 ft | 516 kts | 93° |
| 2026-05-06 14:21 | 42.14192 | -85.80274 | 30269 ft | 519 kts | 93° |
| 2026-05-06 14:21 | 42.14148 | -85.75374 | 30482 ft | 521 kts | 92° |
| 2026-05-06 14:21 | 42.14114 | -85.70466 | 30679 ft | 524 kts | 92° |
| 2026-05-06 14:21 | 42.14083 | -85.65566 | 30873 ft | 526 kts | 92° |
| 2026-05-06 14:22 | 42.14049 | -85.60610 | 31080 ft | 528 kts | 92° |
| 2026-05-06 14:22 | 42.14014 | -85.55678 | 31357 ft | 528 kts | 92° |
| 2026-05-06 14:22 | 42.13977 | -85.50714 | 31574 ft | 529 kts | 91° |
| 2026-05-06 14:22 | 42.14053 | -85.45802 | 31767 ft | 530 kts | 91° |
| 2026-05-06 14:23 | 42.14033 | -85.40778 | 32003 ft | 530 kts | 93° |
| 2026-05-06 14:23 | 42.13931 | -85.35811 | 32252 ft | 531 kts | 94° |
| 2026-05-06 14:23 | 42.13792 | -85.30837 | 32483 ft | 532 kts | 95° |
| 2026-05-06 14:23 | 42.13655 | -85.25847 | 32722 ft | 533 kts | 94° |
| 2026-05-06 14:24 | 42.13542 | -85.20866 | 32956 ft | 534 kts | 94° |
| 2026-05-06 14:24 | 42.13458 | -85.15915 | 33191 ft | 536 kts | 93° |
| 2026-05-06 14:24 | 42.13395 | -85.10892 | 33427 ft | 537 kts | 93° |
| 2026-05-06 14:24 | 42.13344 | -85.05831 | 33670 ft | 538 kts | 93° |
| 2026-05-06 14:25 | 42.13292 | -85.00791 | 33875 ft | 540 kts | 93° |
| 2026-05-06 14:25 | 42.13226 | -84.95716 | 34064 ft | 541 kts | 93° |
| 2026-05-06 14:25 | 42.13143 | -84.90628 | 34269 ft | 541 kts | 94° |
| 2026-05-06 14:25 | 42.13045 | -84.85563 | 34489 ft | 541 kts | 94° |
| 2026-05-06 14:26 | 42.12939 | -84.80493 | 34700 ft | 541 kts | 94° |
| 2026-05-06 14:26 | 42.12833 | -84.75414 | 34916 ft | 541 kts | 94° |
| 2026-05-06 14:26 | 42.12729 | -84.70329 | 35126 ft | 541 kts | 94° |
| 2026-05-06 14:26 | 42.12626 | -84.65330 | 35315 ft | 541 kts | 94° |
| 2026-05-06 14:27 | 42.12520 | -84.60252 | 35483 ft | 542 kts | 94° |
| 2026-05-06 14:27 | 42.12410 | -84.55176 | 35665 ft | 542 kts | 94° |
| 2026-05-06 14:27 | 42.12309 | -84.50089 | 35854 ft | 542 kts | 92° |
| 2026-05-06 14:27 | 42.12519 | -84.45005 | 36037 ft | 544 kts | 83° |
| 2026-05-06 14:28 | 42.13083 | -84.39957 | 36211 ft | 545 kts | 82° |
| 2026-05-06 14:28 | 42.13662 | -84.34926 | 36369 ft | 545 kts | 82° |
| 2026-05-06 14:28 | 42.14235 | -84.29878 | 36538 ft | 545 kts | 82° |
| 2026-05-06 14:28 | 42.14801 | -84.24823 | 36665 ft | 545 kts | 82° |
| 2026-05-06 14:29 | 42.15363 | -84.19767 | 36806 ft | 545 kts | 82° |
| 2026-05-06 14:29 | 42.15922 | -84.14699 | 36938 ft | 546 kts | 82° |
| 2026-05-06 14:29 | 42.17031 | -84.04576 | 36959 ft | 544 kts | 82° |
| 2026-05-06 14:30 | 42.18131 | -83.94537 | 36954 ft | 544 kts | 82° |
| 2026-05-06 14:30 | 42.19229 | -83.84422 | 36963 ft | 546 kts | 83° |
| 2026-05-06 14:31 | 42.20318 | -83.74285 | 36960 ft | 546 kts | 83° |
| 2026-05-06 14:31 | 42.21401 | -83.64125 | 36961 ft | 546 kts | 83° |
| 2026-05-06 14:32 | 42.22457 | -83.54050 | 36961 ft | 546 kts | 83° |
| 2026-05-06 14:32 | 42.23036 | -83.43859 | 36983 ft | 542 kts | 92° |
| 2026-05-06 14:33 | 42.23121 | -83.33681 | 36981 ft | 542 kts | 92° |
| 2026-05-06 14:33 | 42.23184 | -83.23517 | 36979 ft | 541 kts | 92° |
| 2026-05-06 14:34 | 42.23254 | -83.13356 | 36969 ft | 541 kts | 92° |
| 2026-05-06 14:34 | 42.23328 | -83.03181 | 36978 ft | 542 kts | 92° |
| 2026-05-06 14:35 | 42.23387 | -82.93056 | 36981 ft | 542 kts | 92° |
| 2026-05-06 14:35 | 42.23430 | -82.82893 | 36981 ft | 541 kts | 92° |
| 2026-05-06 14:36 | 42.23460 | -82.72709 | 36940 ft | 542 kts | 92° |
| 2026-05-06 14:36 | 42.23481 | -82.62524 | 36939 ft | 543 kts | 92° |
| 2026-05-06 14:37 | 42.23495 | -82.52322 | 36937 ft | 543 kts | 93° |
| 2026-05-06 14:37 | 42.23501 | -82.42128 | 36940 ft | 544 kts | 93° |
| 2026-05-06 14:38 | 42.23501 | -82.31901 | 36923 ft | 545 kts | 93° |
| 2026-05-06 14:38 | 42.23494 | -82.21757 | 36931 ft | 545 kts | 93° |
| 2026-05-06 14:39 | 42.23475 | -82.11515 | 36936 ft | 545 kts | 93° |
| 2026-05-06 14:39 | 42.23441 | -82.01253 | 36940 ft | 545 kts | 93° |
| 2026-05-06 14:40 | 42.23409 | -81.91078 | 36945 ft | 545 kts | 93° |
| 2026-05-06 14:40 | 42.23364 | -81.80838 | 36947 ft | 545 kts | 93° |
| 2026-05-06 14:41 | 42.23301 | -81.70601 | 36944 ft | 545 kts | 93° |
| 2026-05-06 14:41 | 42.23228 | -81.60373 | 36919 ft | 545 kts | 94° |
| 2026-05-06 14:42 | 42.23157 | -81.50123 | 36917 ft | 546 kts | 93° |
| 2026-05-06 14:42 | 42.23082 | -81.39872 | 36920 ft | 546 kts | 94° |
| 2026-05-06 14:43 | 42.22996 | -81.29604 | 36925 ft | 546 kts | 94° |
| 2026-05-06 14:43 | 42.22892 | -81.19355 | 36907 ft | 547 kts | 94° |
| 2026-05-06 14:44 | 42.22778 | -81.09147 | 36919 ft | 547 kts | 94° |
| 2026-05-06 14:45 | 42.22594 | -80.93733 | 36927 ft | 547 kts | 94° |
| 2026-05-06 14:45 | 42.22459 | -80.83461 | 36912 ft | 548 kts | 94° |
| 2026-05-06 14:46 | 42.22314 | -80.73119 | 36911 ft | 548 kts | 94° |
| 2026-05-06 14:46 | 42.22162 | -80.62843 | 36924 ft | 548 kts | 94° |
| 2026-05-06 14:47 | 42.22000 | -80.52621 | 36880 ft | 548 kts | 94° |
| 2026-05-06 14:47 | 42.21832 | -80.42359 | 36939 ft | 547 kts | 94° |
| 2026-05-06 14:48 | 42.21649 | -80.32084 | 36931 ft | 546 kts | 94° |
| 2026-05-06 14:48 | 42.21461 | -80.21866 | 36926 ft | 545 kts | 94° |
| 2026-05-06 14:49 | 42.21266 | -80.11638 | 36899 ft | 545 kts | 94° |
| 2026-05-06 14:49 | 42.21059 | -80.01425 | 36904 ft | 544 kts | 95° |
| 2026-05-06 14:50 | 42.20841 | -79.91271 | 36908 ft | 544 kts | 95° |
| 2026-05-06 14:50 | 42.20612 | -79.81061 | 36903 ft | 544 kts | 95° |
| 2026-05-06 14:51 | 42.20384 | -79.70843 | 36874 ft | 544 kts | 95° |
| 2026-05-06 14:51 | 42.20143 | -79.60706 | 36891 ft | 544 kts | 95° |
| 2026-05-06 14:52 | 42.19891 | -79.50506 | 36893 ft | 544 kts | 95° |
| 2026-05-06 14:52 | 42.19631 | -79.40322 | 36857 ft | 543 kts | 95° |
| 2026-05-06 14:53 | 42.19362 | -79.30107 | 36863 ft | 544 kts | 95° |
| 2026-05-06 14:53 | 42.19081 | -79.19896 | 36871 ft | 545 kts | 95° |
| 2026-05-06 14:54 | 42.18188 | -79.09841 | 36874 ft | 536 kts | 110° |
| 2026-05-06 14:54 | 42.15927 | -79.00336 | 36848 ft | 531 kts | 115° |
| 2026-05-06 14:55 | 42.13567 | -78.90889 | 36858 ft | 532 kts | 115° |
| 2026-05-06 14:55 | 42.11208 | -78.81487 | 36863 ft | 532 kts | 115° |
| 2026-05-06 14:56 | 42.08819 | -78.72038 | 36862 ft | 533 kts | 115° |
| 2026-05-06 14:56 | 42.06427 | -78.62609 | 36844 ft | 533 kts | 115° |
| 2026-05-06 14:57 | 42.04426 | -78.54709 | 36850 ft | 533 kts | 115° |
| 2026-05-06 14:57 | 42.02040 | -78.45319 | 36816 ft | 533 kts | 115° |
| 2026-05-06 14:58 | 41.99623 | -78.35880 | 36827 ft | 534 kts | 115° |
| 2026-05-06 14:58 | 41.97198 | -78.26441 | 36842 ft | 534 kts | 115° |
| 2026-05-06 14:59 | 41.94763 | -78.16994 | 36838 ft | 534 kts | 115° |
| 2026-05-06 14:59 | 41.92332 | -78.07627 | 36841 ft | 534 kts | 115° |
| 2026-05-06 15:00 | 41.89879 | -77.98201 | 36878 ft | 534 kts | 116° |
| 2026-05-06 15:00 | 41.87425 | -77.88791 | 36812 ft | 533 kts | 115° |
| 2026-05-06 15:01 | 41.84973 | -77.79407 | 36805 ft | 532 kts | 115° |
| 2026-05-06 15:01 | 41.82510 | -77.70038 | 36810 ft | 533 kts | 116° |
| 2026-05-06 15:02 | 41.80031 | -77.60677 | 36805 ft | 533 kts | 116° |
| 2026-05-06 15:02 | 41.77552 | -77.51330 | 36789 ft | 531 kts | 116° |
| 2026-05-06 15:03 | 41.75074 | -77.42004 | 36793 ft | 531 kts | 116° |
| 2026-05-06 15:03 | 41.72594 | -77.32711 | 36793 ft | 530 kts | 116° |
| 2026-05-06 15:04 | 41.70113 | -77.23479 | 36792 ft | 529 kts | 116° |
| 2026-05-06 15:04 | 41.67614 | -77.14218 | 36774 ft | 530 kts | 116° |
| 2026-05-06 15:05 | 41.65103 | -77.04901 | 36784 ft | 532 kts | 116° |
| 2026-05-06 15:05 | 41.62582 | -76.95600 | 36788 ft | 532 kts | 116° |
| 2026-05-06 15:06 | 41.60048 | -76.86304 | 36755 ft | 531 kts | 116° |
| 2026-05-06 15:06 | 41.57517 | -76.77040 | 36770 ft | 530 kts | 116° |
| 2026-05-06 15:07 | 41.54974 | -76.67786 | 36777 ft | 530 kts | 116° |
| 2026-05-06 15:07 | 41.52431 | -76.58537 | 36793 ft | 530 kts | 115° |
| 2026-05-06 15:08 | 41.49915 | -76.49357 | 36768 ft | 530 kts | 116° |
| 2026-05-06 15:08 | 41.47354 | -76.40132 | 36807 ft | 529 kts | 116° |
| 2026-05-06 15:09 | 41.44774 | -76.30916 | 36825 ft | 529 kts | 116° |
| 2026-05-06 15:09 | 41.42211 | -76.21736 | 36824 ft | 528 kts | 116° |
| 2026-05-06 15:10 | 41.39636 | -76.12539 | 36828 ft | 528 kts | 115° |
| 2026-05-06 15:10 | 41.37083 | -76.03442 | 36835 ft | 527 kts | 116° |
| 2026-05-06 15:11 | 41.34511 | -75.94307 | 36837 ft | 527 kts | 116° |
| 2026-05-06 15:11 | 41.31923 | -75.85188 | 36806 ft | 527 kts | 116° |
| 2026-05-06 15:12 | 41.29318 | -75.76027 | 36808 ft | 529 kts | 115° |
| 2026-05-06 15:12 | 41.26695 | -75.66890 | 36814 ft | 529 kts | 116° |
| 2026-05-06 15:13 | 41.23788 | -75.57901 | 36818 ft | 528 kts | 120° |
| 2026-05-06 15:13 | 41.20694 | -75.49048 | 36851 ft | 528 kts | 120° |
| 2026-05-06 15:14 | 41.17641 | -75.40223 | 36830 ft | 529 kts | 119° |
| 2026-05-06 15:14 | 41.14637 | -75.31288 | 36847 ft | 529 kts | 118° |
| 2026-05-06 15:15 | 41.11653 | -75.22344 | 36862 ft | 530 kts | 119° |
| 2026-05-06 15:15 | 41.08644 | -75.13444 | 36871 ft | 530 kts | 119° |
| 2026-05-06 15:16 | 41.05603 | -75.04545 | 36841 ft | 529 kts | 119° |
| 2026-05-06 15:16 | 41.02576 | -74.95661 | 36864 ft | 528 kts | 119° |
| 2026-05-06 15:17 | 40.99803 | -74.86618 | 36876 ft | 533 kts | 108° |
| 2026-05-06 15:17 | 40.98445 | -74.76936 | 36873 ft | 536 kts | 99° |
| 2026-05-06 15:18 | 40.97311 | -74.67237 | 36875 ft | 536 kts | 100° |
| 2026-05-06 15:18 | 40.96147 | -74.57506 | 36888 ft | 535 kts | 100° |
| 2026-05-06 15:19 | 40.94987 | -74.47769 | 36895 ft | 535 kts | 101° |
| 2026-05-06 15:19 | 40.93817 | -74.38037 | 36894 ft | 536 kts | 101° |
| 2026-05-06 15:20 | 40.92645 | -74.28281 | 36886 ft | 537 kts | 100° |
| 2026-05-06 15:20 | 40.91465 | -74.18543 | 36898 ft | 537 kts | 101° |
| 2026-05-06 15:20 | 40.90586 | -74.13755 | 36891 ft | 533 kts | 112° |
| 2026-05-06 15:21 | 40.89172 | -74.09270 | 36887 ft | 526 kts | 123° |
| 2026-05-06 15:21 | 40.85321 | -74.01148 | 36866 ft | 522 kts | 129° |
| 2026-05-06 15:22 | 40.81363 | -73.93061 | 36860 ft | 525 kts | 129° |
| 2026-05-06 15:22 | 40.77154 | -73.85276 | 36873 ft | 508 kts | 147° |
| 2026-05-06 15:22 | 40.74351 | -73.82707 | 36875 ft | 479 kts | 167° |
| 2026-05-06 15:23 | 40.71284 | -73.81396 | 36903 ft | 451 kts | 183° |
| 2026-05-06 15:23 | 40.68222 | -73.81016 | 36903 ft | 435 kts | 192° |
| 2026-05-06 15:23 | 40.65212 | -73.81069 | 36901 ft | 430 kts | 195° |
| 2026-05-06 15:24 | 40.59166 | -73.81128 | 36900 ft | 442 kts | 190° |
| 2026-05-06 15:24 | 40.52946 | -73.80367 | 36905 ft | 454 kts | 185° |
| 2026-05-06 15:25 | 40.46713 | -73.79116 | 36910 ft | 457 kts | 184° |
| 2026-05-06 15:25 | 40.40430 | -73.77882 | 36878 ft | 455 kts | 185° |
| 2026-05-06 15:26 | 40.34145 | -73.76819 | 36889 ft | 455 kts | 186° |
| 2026-05-06 15:26 | 40.27835 | -73.75808 | 36909 ft | 457 kts | 186° |
| 2026-05-06 15:27 | 40.21505 | -73.74763 | 36916 ft | 459 kts | 185° |
| 2026-05-06 15:27 | 40.18338 | -73.73962 | 36897 ft | 478 kts | 171° |
| 2026-05-06 15:27 | 40.15331 | -73.71851 | 36905 ft | 505 kts | 149° |
| 2026-05-06 15:27 | 40.12886 | -73.68455 | 36908 ft | 523 kts | 127° |
| 2026-05-06 15:28 | 40.11323 | -73.64129 | 36906 ft | 530 kts | 104° |
| 2026-05-06 15:28 | 40.10858 | -73.59383 | 36966 ft | 525 kts | 82° |
| 2026-05-06 15:28 | 40.11516 | -73.54754 | 36941 ft | 511 kts | 60° |
| 2026-05-06 15:28 | 40.13193 | -73.50788 | 36962 ft | 487 kts | 38° |
| 2026-05-06 15:29 | 40.15612 | -73.47942 | 36990 ft | 453 kts | 17° |
| 2026-05-06 15:29 | 40.18387 | -73.46487 | 36945 ft | 419 kts | 355° |
| 2026-05-06 15:29 | 40.21152 | -73.46493 | 36950 ft | 383 kts | 333° |
| 2026-05-06 15:29 | 40.23470 | -73.47849 | 36961 ft | 354 kts | 312° |
| 2026-05-06 15:30 | 40.24987 | -73.50236 | 36946 ft | 337 kts | 292° |
| 2026-05-06 15:30 | 40.27062 | -73.55719 | 36923 ft | 349 kts | 310° |
| 2026-05-06 15:30 | 40.29185 | -73.57443 | 36922 ft | 374 kts | 332° |
| 2026-05-06 15:31 | 40.31875 | -73.57872 | 36914 ft | 408 kts | 354° |
| 2026-05-06 15:31 | 40.34711 | -73.56834 | 36903 ft | 441 kts | 13° |
| 2026-05-06 15:31 | 40.37467 | -73.54940 | 36903 ft | 448 kts | 15° |
| 2026-05-06 15:32 | 40.43164 | -73.52483 | 36933 ft | 423 kts | 356° |
| 2026-05-06 15:32 | 40.46047 | -73.51820 | 36928 ft | 428 kts | 357° |
| 2026-05-06 15:32 | 40.51937 | -73.50371 | 36928 ft | 431 kts | 358° |
| 2026-05-06 15:33 | 40.57833 | -73.48885 | 36927 ft | 431 kts | 358° |
| 2026-05-06 15:33 | 40.63751 | -73.47419 | 36926 ft | 433 kts | 358° |
| 2026-05-06 15:34 | 40.69599 | -73.45513 | 36920 ft | 439 kts | 12° |
| 2026-05-06 15:34 | 40.75111 | -73.42797 | 36926 ft | 394 kts | 348° |
| 2026-05-06 15:35 | 40.77669 | -73.43222 | 36929 ft | 354 kts | 325° |
| 2026-05-06 15:35 | 40.79626 | -73.44898 | 36923 ft | 325 kts | 303° |
| 2026-05-06 15:35 | 40.80876 | -73.47277 | 36914 ft | 317 kts | 292° |
| 2026-05-06 15:35 | 40.81810 | -73.49921 | 36909 ft | 317 kts | 288° |
| 2026-05-06 15:36 | 40.82344 | -73.52700 | 36903 ft | 312 kts | 269° |
| 2026-05-06 15:36 | 40.81873 | -73.55508 | 36907 ft | 320 kts | 253° |
| 2026-05-06 15:36 | 40.80309 | -73.61020 | 36861 ft | 320 kts | 257° |
| 2026-05-06 15:37 | 40.79724 | -73.62863 | 36894 ft | 327 kts | 246° |
| 2026-05-06 15:37 | 40.78209 | -73.65216 | 36909 ft | 346 kts | 232° |
| 2026-05-06 15:37 | 40.76273 | -73.67114 | 36923 ft | 358 kts | 224° |
| 2026-05-06 15:37 | 40.74079 | -73.68762 | 36928 ft | 364 kts | 220° |
| 2026-05-06 15:38 | 40.69538 | -73.71789 | 36926 ft | 365 kts | 220° |
| 2026-05-06 15:38 | 40.65098 | -73.74971 | 36920 ft | 360 kts | 223° |
| 2026-05-06 15:39 | 40.60451 | -73.77724 | 36910 ft | 388 kts | 204° |
| 2026-05-06 15:39 | 40.57692 | -73.78113 | 36925 ft | 408 kts | 194° |
| 2026-05-06 15:39 | 40.54814 | -73.77962 | 36925 ft | 420 kts | 188° |
| 2026-05-06 15:40 | 40.48953 | -73.77026 | 36923 ft | 424 kts | 186° |
| 2026-05-06 15:40 | 40.43113 | -73.76274 | 36923 ft | 419 kts | 190° |
| 2026-05-06 15:41 | 40.37304 | -73.75907 | 36921 ft | 419 kts | 192° |
| 2026-05-06 15:41 | 40.31487 | -73.75652 | 36916 ft | 423 kts | 189° |
| 2026-05-06 15:42 | 40.28484 | -73.74804 | 36924 ft | 454 kts | 167° |
| 2026-05-06 15:42 | 40.25727 | -73.72554 | 36930 ft | 483 kts | 144° |
| 2026-05-06 15:42 | 40.23588 | -73.69067 | 36934 ft | 501 kts | 121° |
| 2026-05-06 15:42 | 40.22171 | -73.64924 | 36941 ft | 508 kts | 112° |
| 2026-05-06 15:43 | 40.20055 | -73.56075 | 36931 ft | 507 kts | 113° |
| 2026-05-06 15:43 | 40.18415 | -73.52063 | 36932 ft | 494 kts | 136° |
| 2026-05-06 15:43 | 40.15975 | -73.49080 | 36948 ft | 470 kts | 159° |
| 2026-05-06 15:44 | 40.13085 | -73.47454 | 36956 ft | 437 kts | 183° |
| 2026-05-06 15:44 | 40.10197 | -73.47298 | 36957 ft | 400 kts | 206° |
| 2026-05-06 15:44 | 40.07726 | -73.48453 | 36962 ft | 368 kts | 224° |
| 2026-05-06 15:44 | 40.05653 | -73.50302 | 36966 ft | 356 kts | 233° |
| 2026-05-06 15:45 | 40.03865 | -73.52467 | 36953 ft | 345 kts | 240° |
| 2026-05-06 15:45 | 40.02446 | -73.54909 | 36952 ft | 331 kts | 250° |
| 2026-05-06 15:45 | 40.01518 | -73.57585 | 36953 ft | 319 kts | 261° |
| 2026-05-06 15:45 | 40.01120 | -73.60393 | 36952 ft | 311 kts | 272° |
| 2026-05-06 15:46 | 40.01764 | -73.65882 | 36954 ft | 308 kts | 290° |
| 2026-05-06 15:46 | 40.04094 | -73.70622 | 36942 ft | 319 kts | 308° |
| 2026-05-06 15:47 | 40.05827 | -73.72438 | 36938 ft | 330 kts | 319° |
| 2026-05-06 15:47 | 40.07939 | -73.73764 | 36932 ft | 346 kts | 330° |
| 2026-05-06 15:47 | 40.10343 | -73.74471 | 36951 ft | 361 kts | 339° |
| 2026-05-06 15:47 | 40.12866 | -73.74835 | 36938 ft | 368 kts | 342° |
| 2026-05-06 15:48 | 40.18023 | -73.75114 | 36929 ft | 373 kts | 345° |
| 2026-05-06 15:48 | 40.23222 | -73.75259 | 36926 ft | 374 kts | 344° |
| 2026-05-06 15:49 | 40.28422 | -73.75490 | 36925 ft | 373 kts | 343° |
| 2026-05-06 15:49 | 40.33662 | -73.75464 | 36915 ft | 396 kts | 359° |
| 2026-05-06 15:50 | 40.36314 | -73.74071 | 36922 ft | 432 kts | 21° |
| 2026-05-06 15:50 | 40.38605 | -73.71291 | 36922 ft | 466 kts | 45° |
| 2026-05-06 15:50 | 40.40133 | -73.67419 | 36951 ft | 492 kts | 69° |
| 2026-05-06 15:50 | 40.40638 | -73.62940 | 36908 ft | 503 kts | 92° |
| 2026-05-06 15:51 | 40.40003 | -73.58440 | 36925 ft | 501 kts | 115° |
| 2026-05-06 15:51 | 40.38330 | -73.54521 | 36922 ft | 486 kts | 139° |
| 2026-05-06 15:51 | 40.35867 | -73.51667 | 36907 ft | 462 kts | 162° |
| 2026-05-06 15:51 | 40.32985 | -73.50192 | 36938 ft | 430 kts | 185° |
| 2026-05-06 15:52 | 40.30146 | -73.50191 | 36940 ft | 393 kts | 207° |
| 2026-05-06 15:52 | 40.27533 | -73.51120 | 36940 ft | 388 kts | 210° |
| 2026-05-06 15:52 | 40.22917 | -73.53959 | 36942 ft | 345 kts | 236° |
| 2026-05-06 15:53 | 40.19559 | -73.58420 | 36933 ft | 342 kts | 239° |
| 2026-05-06 15:53 | 40.18170 | -73.60859 | 36927 ft | 328 kts | 251° |
| 2026-05-06 15:53 | 40.17413 | -73.63584 | 36911 ft | 313 kts | 267° |
| 2026-05-06 15:54 | 40.17376 | -73.66384 | 36941 ft | 306 kts | 281° |
| 2026-05-06 15:54 | 40.17969 | -73.69041 | 36934 ft | 307 kts | 292° |
| 2026-05-06 15:54 | 40.19100 | -73.71431 | 36931 ft | 313 kts | 303° |
| 2026-05-06 15:54 | 40.20700 | -73.73388 | 36929 ft | 326 kts | 316° |
| 2026-05-06 15:55 | 40.22765 | -73.74781 | 36918 ft | 345 kts | 330° |
| 2026-05-06 15:55 | 40.25191 | -73.75422 | 36929 ft | 363 kts | 340° |
| 2026-05-06 15:55 | 40.30307 | -73.75871 | 36919 ft | 372 kts | 344° |
| 2026-05-06 15:56 | 40.32933 | -73.75803 | 36913 ft | 389 kts | 356° |
| 2026-05-06 15:56 | 40.35608 | -73.74616 | 36921 ft | 424 kts | 17° |
| 2026-05-06 15:56 | 40.37979 | -73.72099 | 36912 ft | 459 kts | 40° |
| 2026-05-06 15:56 | 40.39667 | -73.68397 | 36950 ft | 486 kts | 64° |
| 2026-05-06 15:57 | 40.40366 | -73.64003 | 36909 ft | 500 kts | 88° |
| 2026-05-06 15:57 | 40.39931 | -73.59482 | 36922 ft | 500 kts | 111° |
| 2026-05-06 15:57 | 40.38451 | -73.55484 | 36921 ft | 488 kts | 134° |
| 2026-05-06 15:57 | 40.36115 | -73.52423 | 36901 ft | 465 kts | 158° |
| 2026-05-06 15:58 | 40.33284 | -73.50699 | 36935 ft | 434 kts | 181° |
| 2026-05-06 15:58 | 40.30411 | -73.50451 | 36938 ft | 397 kts | 204° |
| 2026-05-06 15:58 | 40.27794 | -73.51314 | 36924 ft | 386 kts | 210° |
| 2026-05-06 15:58 | 40.25232 | -73.52329 | 36927 ft | 380 kts | 216° |
| 2026-05-06 15:59 | 40.23094 | -73.54027 | 36935 ft | 348 kts | 234° |
| 2026-05-06 15:59 | 40.21318 | -73.56162 | 36926 ft | 347 kts | 235° |
| 2026-05-06 15:59 | 40.18173 | -73.60784 | 36928 ft | 328 kts | 251° |
| 2026-05-06 16:00 | 40.17409 | -73.63502 | 36910 ft | 313 kts | 267° |
| 2026-05-06 16:00 | 40.17368 | -73.66295 | 36941 ft | 306 kts | 280° |
| 2026-05-06 16:00 | 40.17951 | -73.68960 | 36936 ft | 306 kts | 292° |
| 2026-05-06 16:00 | 40.19065 | -73.71363 | 36942 ft | 313 kts | 303° |
| 2026-05-06 16:01 | 40.20660 | -73.73357 | 36926 ft | 325 kts | 315° |
| 2026-05-06 16:01 | 40.22706 | -73.74764 | 36922 ft | 344 kts | 330° |
| 2026-05-06 16:01 | 40.25135 | -73.75419 | 36933 ft | 363 kts | 340° |
| 2026-05-06 16:01 | 40.27677 | -73.75717 | 36918 ft | 369 kts | 342° |
| 2026-05-06 16:02 | 40.32876 | -73.75807 | 36908 ft | 388 kts | 356° |
| 2026-05-06 16:02 | 40.35540 | -73.74655 | 36912 ft | 423 kts | 16° |
| 2026-05-06 16:02 | 40.37932 | -73.72175 | 36918 ft | 458 kts | 39° |
| 2026-05-06 16:03 | 40.39649 | -73.68505 | 36944 ft | 486 kts | 63° |
| 2026-05-06 16:03 | 40.40382 | -73.64128 | 36907 ft | 500 kts | 87° |
| 2026-05-06 16:03 | 40.39982 | -73.59600 | 36913 ft | 500 kts | 111° |
| 2026-05-06 16:03 | 40.38511 | -73.55548 | 36915 ft | 488 kts | 134° |
| 2026-05-06 16:04 | 40.36185 | -73.52466 | 36900 ft | 465 kts | 157° |
| 2026-05-06 16:04 | 40.33367 | -73.50724 | 36936 ft | 435 kts | 180° |
| 2026-05-06 16:04 | 40.30492 | -73.50450 | 36940 ft | 398 kts | 204° |
| 2026-05-06 16:04 | 40.27911 | -73.51285 | 36930 ft | 386 kts | 210° |
| 2026-05-06 16:05 | 40.23169 | -73.53944 | 36928 ft | 349 kts | 233° |
| 2026-05-06 16:05 | 40.19652 | -73.58269 | 36928 ft | 343 kts | 239° |
| 2026-05-06 16:06 | 40.18224 | -73.60691 | 36923 ft | 329 kts | 250° |
| 2026-05-06 16:06 | 40.17432 | -73.63405 | 36910 ft | 314 kts | 267° |
| 2026-05-06 16:06 | 40.17369 | -73.66196 | 36936 ft | 305 kts | 280° |
| 2026-05-06 16:06 | 40.17929 | -73.68862 | 36929 ft | 305 kts | 292° |
| 2026-05-06 16:07 | 40.19019 | -73.71267 | 36934 ft | 311 kts | 303° |
| 2026-05-06 16:07 | 40.20594 | -73.73281 | 36924 ft | 323 kts | 315° |
| 2026-05-06 16:07 | 40.22615 | -73.74715 | 36922 ft | 342 kts | 329° |
| 2026-05-06 16:07 | 40.25018 | -73.75393 | 36926 ft | 361 kts | 340° |
| 2026-05-06 16:08 | 40.30077 | -73.75846 | 36918 ft | 370 kts | 344° |
| 2026-05-06 16:08 | 40.32678 | -73.75827 | 36906 ft | 384 kts | 354° |
| 2026-05-06 16:08 | 40.35343 | -73.74770 | 36909 ft | 419 kts | 15° |
| 2026-05-06 16:09 | 40.37750 | -73.72396 | 36915 ft | 454 kts | 38° |
| 2026-05-06 16:09 | 40.39515 | -73.68807 | 36912 ft | 483 kts | 61° |
| 2026-05-06 16:09 | 40.40313 | -73.64475 | 36910 ft | 499 kts | 86° |
| 2026-05-06 16:09 | 40.39986 | -73.59948 | 36917 ft | 499 kts | 109° |
| 2026-05-06 16:10 | 40.38580 | -73.55864 | 36916 ft | 487 kts | 133° |
| 2026-05-06 16:10 | 40.36302 | -73.52722 | 36897 ft | 465 kts | 156° |
| 2026-05-06 16:10 | 40.33510 | -73.50906 | 36928 ft | 435 kts | 179° |
| 2026-05-06 16:10 | 40.30626 | -73.50557 | 36933 ft | 398 kts | 203° |
| 2026-05-06 16:11 | 40.28014 | -73.51382 | 36925 ft | 384 kts | 210° |
| 2026-05-06 16:11 | 40.25454 | -73.52381 | 36924 ft | 381 kts | 214° |
| 2026-05-06 16:11 | 40.23264 | -73.54001 | 36924 ft | 347 kts | 234° |
| 2026-05-06 16:11 | 40.21519 | -73.56120 | 36923 ft | 345 kts | 235° |
| 2026-05-06 16:12 | 40.18346 | -73.60689 | 36923 ft | 328 kts | 250° |
| 2026-05-06 16:12 | 40.17526 | -73.63377 | 36907 ft | 313 kts | 265° |
| 2026-05-06 16:12 | 40.17437 | -73.66167 | 36932 ft | 305 kts | 279° |
| 2026-05-06 16:13 | 40.17969 | -73.68830 | 36928 ft | 305 kts | 291° |
| 2026-05-06 16:13 | 40.19035 | -73.71248 | 36930 ft | 311 kts | 302° |
| 2026-05-06 16:13 | 40.20591 | -73.73263 | 36924 ft | 323 kts | 315° |
| 2026-05-06 16:13 | 40.22612 | -73.74706 | 36916 ft | 342 kts | 329° |
| 2026-05-06 16:14 | 40.25011 | -73.75386 | 36913 ft | 361 kts | 339° |
| 2026-05-06 16:14 | 40.27513 | -73.75690 | 36919 ft | 367 kts | 342° |
| 2026-05-06 16:14 | 40.32671 | -73.75837 | 36910 ft | 384 kts | 354° |
| 2026-05-06 16:15 | 40.35336 | -73.74786 | 36913 ft | 419 kts | 15° |
| 2026-05-06 16:15 | 40.37753 | -73.72393 | 36912 ft | 454 kts | 38° |
| 2026-05-06 16:15 | 40.39508 | -73.68805 | 36917 ft | 483 kts | 62° |
| 2026-05-06 16:15 | 40.40301 | -73.64452 | 36911 ft | 499 kts | 86° |
| 2026-05-06 16:16 | 40.40205 | -73.61439 | 36908 ft | 500 kts | 102° |
| 2026-05-06 16:16 | 40.39136 | -73.57150 | 36920 ft | 493 kts | 125° |
| 2026-05-06 16:16 | 40.37109 | -73.53642 | 36886 ft | 473 kts | 148° |
| 2026-05-06 16:16 | 40.34432 | -73.51364 | 36921 ft | 446 kts | 172° |
| 2026-05-06 16:17 | 40.31562 | -73.50535 | 36930 ft | 411 kts | 195° |
| 2026-05-06 16:17 | 40.28862 | -73.51079 | 36943 ft | 383 kts | 210° |
| 2026-05-06 16:17 | 40.23911 | -73.53373 | 36913 ft | 356 kts | 230° |
| 2026-05-06 16:18 | 40.22088 | -73.55427 | 36921 ft | 345 kts | 235° |
| 2026-05-06 16:18 | 40.20344 | -73.57591 | 36926 ft | 344 kts | 236° |
| 2026-05-06 16:18 | 40.18764 | -73.59887 | 36928 ft | 333 kts | 245° |
| 2026-05-06 16:18 | 40.17713 | -73.62493 | 36928 ft | 317 kts | 260° |
| 2026-05-06 16:19 | 40.17392 | -73.65280 | 36931 ft | 306 kts | 276° |
| 2026-05-06 16:19 | 40.17735 | -73.68011 | 36928 ft | 304 kts | 288° |
| 2026-05-06 16:19 | 40.18644 | -73.70512 | 36939 ft | 308 kts | 299° |
| 2026-05-06 16:19 | 40.20058 | -73.72674 | 36916 ft | 318 kts | 311° |
| 2026-05-06 16:20 | 40.21936 | -73.74319 | 36919 ft | 335 kts | 324° |
| 2026-05-06 16:20 | 40.24201 | -73.75239 | 36922 ft | 357 kts | 338° |
| 2026-05-06 16:20 | 40.29260 | -73.75806 | 36913 ft | 368 kts | 343° |
| 2026-05-06 16:21 | 40.34487 | -73.75248 | 36911 ft | 406 kts | 8° |
| 2026-05-06 16:21 | 40.37016 | -73.73287 | 36904 ft | 442 kts | 31° |
| 2026-05-06 16:21 | 40.38989 | -73.70092 | 36910 ft | 473 kts | 54° |
| 2026-05-06 16:22 | 40.40110 | -73.65936 | 36935 ft | 494 kts | 78° |
| 2026-05-06 16:22 | 40.40135 | -73.61410 | 36910 ft | 498 kts | 102° |
| 2026-05-06 16:22 | 40.39041 | -73.57150 | 36920 ft | 490 kts | 126° |
| 2026-05-06 16:22 | 40.37004 | -73.53694 | 36887 ft | 471 kts | 149° |
| 2026-05-06 16:23 | 40.34326 | -73.51467 | 36920 ft | 443 kts | 172° |
| 2026-05-06 16:23 | 40.31435 | -73.50688 | 36936 ft | 408 kts | 196° |
| 2026-05-06 16:23 | 40.28789 | -73.51269 | 36928 ft | 381 kts | 211° |
| 2026-05-06 16:23 | 40.26240 | -73.52248 | 36921 ft | 383 kts | 211° |
| 2026-05-06 16:24 | 40.23877 | -73.53580 | 36915 ft | 353 kts | 230° |
| 2026-05-06 16:24 | 40.22058 | -73.55646 | 36921 ft | 343 kts | 235° |
| 2026-05-06 16:24 | 40.18772 | -73.60089 | 36922 ft | 331 kts | 246° |
| 2026-05-06 16:25 | 40.17756 | -73.62689 | 36926 ft | 315 kts | 261° |
| 2026-05-06 16:25 | 40.17457 | -73.65469 | 36928 ft | 305 kts | 275° |
| 2026-05-06 16:25 | 40.17811 | -73.68163 | 36924 ft | 302 kts | 288° |
| 2026-05-06 16:25 | 40.18730 | -73.70654 | 36934 ft | 307 kts | 299° |
| 2026-05-06 16:26 | 40.20150 | -73.72785 | 36920 ft | 317 kts | 311° |
| 2026-05-06 16:26 | 40.22045 | -73.74400 | 36915 ft | 334 kts | 325° |
| 2026-05-06 16:26 | 40.24339 | -73.75275 | 36918 ft | 357 kts | 339° |
| 2026-05-06 16:26 | 40.26837 | -73.75632 | 36918 ft | 364 kts | 342° |
| 2026-05-06 16:27 | 40.31919 | -73.75888 | 36908 ft | 374 kts | 348° |
| 2026-05-06 16:27 | 40.34566 | -73.75206 | 36901 ft | 407 kts | 9° |
| 2026-05-06 16:27 | 40.37086 | -73.73195 | 36911 ft | 443 kts | 31° |
| 2026-05-06 16:28 | 40.39050 | -73.69921 | 36908 ft | 474 kts | 55° |
| 2026-05-06 16:28 | 40.40127 | -73.65728 | 36929 ft | 494 kts | 79° |
| 2026-05-06 16:28 | 40.40101 | -73.61220 | 36909 ft | 498 kts | 103° |
| 2026-05-06 16:28 | 40.38959 | -73.56974 | 36917 ft | 490 kts | 127° |
| 2026-05-06 16:29 | 40.36880 | -73.53559 | 36886 ft | 470 kts | 150° |
| 2026-05-06 16:29 | 40.34185 | -73.51399 | 36915 ft | 442 kts | 173° |
| 2026-05-06 16:29 | 40.31298 | -73.50687 | 36928 ft | 406 kts | 197° |
| 2026-05-06 16:29 | 40.28674 | -73.51305 | 36925 ft | 381 kts | 211° |
| 2026-05-06 16:30 | 40.24472 | -73.53100 | 36915 ft | 365 kts | 224° |
| 2026-05-06 16:30 | 40.21991 | -73.55747 | 36919 ft | 342 kts | 236° |
| 2026-05-06 16:30 | 40.20278 | -73.57910 | 36919 ft | 342 kts | 237° |
| 2026-05-06 16:31 | 40.18737 | -73.60222 | 36922 ft | 330 kts | 246° |
| 2026-05-06 16:31 | 40.17738 | -73.62834 | 36916 ft | 314 kts | 261° |
| 2026-05-06 16:31 | 40.17466 | -73.65611 | 36926 ft | 304 kts | 276° |
| 2026-05-06 16:31 | 40.17861 | -73.68302 | 36920 ft | 302 kts | 289° |
| 2026-05-06 16:32 | 40.18811 | -73.70760 | 36936 ft | 307 kts | 300° |
| 2026-05-06 16:32 | 40.20259 | -73.72874 | 36911 ft | 318 kts | 311° |
| 2026-05-06 16:32 | 40.22164 | -73.74461 | 36911 ft | 335 kts | 325° |
| 2026-05-06 16:32 | 40.24487 | -73.75308 | 36914 ft | 357 kts | 339° |
| 2026-05-06 16:33 | 40.29533 | -73.75827 | 36908 ft | 368 kts | 344° |
| 2026-05-06 16:34 | 40.37219 | -73.73057 | 36906 ft | 445 kts | 33° |
| 2026-05-06 16:34 | 40.39140 | -73.69711 | 36911 ft | 476 kts | 56° |
| 2026-05-06 16:34 | 40.40151 | -73.65496 | 36923 ft | 495 kts | 81° |
| 2026-05-06 16:34 | 40.40057 | -73.60990 | 36908 ft | 497 kts | 104° |
| 2026-05-06 16:35 | 40.38853 | -73.56784 | 36912 ft | 487 kts | 128° |
| 2026-05-06 16:35 | 40.36727 | -73.53447 | 36887 ft | 466 kts | 152° |
| 2026-05-06 16:35 | 40.34016 | -73.51391 | 36916 ft | 439 kts | 175° |
| 2026-05-06 16:35 | 40.31144 | -73.50787 | 36932 ft | 402 kts | 199° |
| 2026-05-06 16:36 | 40.28511 | -73.51484 | 36925 ft | 381 kts | 211° |
| 2026-05-06 16:36 | 40.23671 | -73.53880 | 36916 ft | 348 kts | 231° |
| 2026-05-06 16:37 | 40.20125 | -73.58071 | 36921 ft | 340 kts | 237° |
| 2026-05-06 16:37 | 40.18631 | -73.60344 | 36917 ft | 328 kts | 247° |
| 2026-05-06 16:37 | 40.17682 | -73.62973 | 36924 ft | 312 kts | 262° |
| 2026-05-06 16:37 | 40.17458 | -73.65725 | 36923 ft | 302 kts | 277° |
| 2026-05-06 16:38 | 40.17872 | -73.68407 | 36919 ft | 301 kts | 289° |
| 2026-05-06 16:38 | 40.18828 | -73.70845 | 36932 ft | 306 kts | 300° |
| 2026-05-06 16:38 | 40.20291 | -73.72930 | 36913 ft | 317 kts | 312° |
| 2026-05-06 16:38 | 40.22205 | -73.74482 | 36912 ft | 334 kts | 326° |
| 2026-05-06 16:39 | 40.24516 | -73.75306 | 36909 ft | 356 kts | 339° |
| 2026-05-06 16:39 | 40.29545 | -73.75829 | 36905 ft | 366 kts | 343° |
| 2026-05-06 16:40 | 40.34747 | -73.75113 | 36909 ft | 408 kts | 11° |
| 2026-05-06 16:40 | 40.37192 | -73.73024 | 36908 ft | 444 kts | 33° |
| 2026-05-06 16:40 | 40.39105 | -73.69613 | 36908 ft | 475 kts | 57° |
| 2026-05-06 16:40 | 40.40063 | -73.65450 | 36925 ft | 494 kts | 81° |
| 2026-05-06 16:41 | 40.39931 | -73.60926 | 36908 ft | 496 kts | 105° |
| 2026-05-06 16:41 | 40.38693 | -73.56760 | 36914 ft | 487 kts | 129° |
| 2026-05-06 16:41 | 40.36532 | -73.53457 | 36890 ft | 465 kts | 153° |
| 2026-05-06 16:41 | 40.33841 | -73.51470 | 36915 ft | 438 kts | 176° |
| 2026-05-06 16:42 | 40.30967 | -73.50907 | 36930 ft | 401 kts | 199° |
| 2026-05-06 16:42 | 40.28343 | -73.51630 | 36924 ft | 380 kts | 211° |
| 2026-05-06 16:42 | 40.25805 | -73.52614 | 36913 ft | 379 kts | 212° |
| 2026-05-06 16:42 | 40.23557 | -73.54085 | 36915 ft | 346 kts | 232° |
| 2026-05-06 16:43 | 40.21794 | -73.56190 | 36918 ft | 341 kts | 236° |
| 2026-05-06 16:43 | 40.18621 | -73.60687 | 36919 ft | 326 kts | 248° |
| 2026-05-06 16:43 | 40.17728 | -73.63320 | 36919 ft | 311 kts | 263° |
| 2026-05-06 16:44 | 40.17553 | -73.66081 | 36922 ft | 302 kts | 278° |
| 2026-05-06 16:44 | 40.18022 | -73.68735 | 36915 ft | 301 kts | 290° |
| 2026-05-06 16:44 | 40.19039 | -73.71140 | 36913 ft | 307 kts | 301° |
| 2026-05-06 16:44 | 40.20551 | -73.73173 | 36915 ft | 319 kts | 314° |
| 2026-05-06 16:45 | 40.22526 | -73.74650 | 36905 ft | 337 kts | 328° |
| 2026-05-06 16:45 | 40.24880 | -73.75364 | 36911 ft | 357 kts | 339° |
| 2026-05-06 16:45 | 40.27379 | -73.75676 | 36909 ft | 363 kts | 342° |
| 2026-05-06 16:46 | 40.32501 | -73.75849 | 36900 ft | 378 kts | 353° |
| 2026-05-06 16:46 | 40.35100 | -73.74907 | 36907 ft | 413 kts | 13° |
| 2026-05-06 16:46 | 40.37520 | -73.72616 | 36905 ft | 449 kts | 37° |
| 2026-05-06 16:46 | 40.39307 | -73.69100 | 36903 ft | 478 kts | 60° |
| 2026-05-06 16:47 | 40.40138 | -73.64804 | 36914 ft | 495 kts | 85° |
| 2026-05-06 16:47 | 40.39845 | -73.60311 | 36911 ft | 495 kts | 109° |
| 2026-05-06 16:47 | 40.38470 | -73.56243 | 36913 ft | 484 kts | 132° |
| 2026-05-06 16:47 | 40.36220 | -73.53109 | 36895 ft | 462 kts | 156° |
| 2026-05-06 16:48 | 40.33435 | -73.51287 | 36914 ft | 433 kts | 179° |
| 2026-05-06 16:48 | 40.30589 | -73.50941 | 36927 ft | 395 kts | 203° |
| 2026-05-06 16:48 | 40.27995 | -73.51760 | 36920 ft | 380 kts | 210° |
| 2026-05-06 16:49 | 40.23293 | -73.54354 | 36915 ft | 343 kts | 234° |
| 2026-05-06 16:49 | 40.19877 | -73.58641 | 36915 ft | 337 kts | 238° |
| 2026-05-06 16:49 | 40.18473 | -73.60980 | 36911 ft | 323 kts | 250° |
| 2026-05-06 16:50 | 40.17666 | -73.63627 | 36914 ft | 308 kts | 265° |
| 2026-05-06 16:50 | 40.17574 | -73.66376 | 36918 ft | 300 kts | 279° |
| 2026-05-06 16:50 | 40.18102 | -73.68990 | 36914 ft | 300 kts | 291° |
| 2026-05-06 16:51 | 40.20721 | -73.73344 | 36911 ft | 318 kts | 315° |
| 2026-05-06 16:51 | 40.22712 | -73.74752 | 36903 ft | 337 kts | 329° |
| 2026-05-06 16:51 | 40.25077 | -73.75410 | 36909 ft | 356 kts | 339° |
| 2026-05-06 16:52 | 40.30094 | -73.75849 | 36905 ft | 365 kts | 344° |
| 2026-05-06 16:52 | 40.32661 | -73.75827 | 36902 ft | 379 kts | 354° |
| 2026-05-06 16:52 | 40.35285 | -73.74773 | 36908 ft | 414 kts | 15° |
| 2026-05-06 16:52 | 40.37655 | -73.72380 | 36906 ft | 450 kts | 39° |
| 2026-05-06 16:53 | 40.39355 | -73.68805 | 36907 ft | 478 kts | 62° |
| 2026-05-06 16:53 | 40.40087 | -73.64526 | 36909 ft | 494 kts | 87° |
| 2026-05-06 16:53 | 40.39703 | -73.60059 | 36909 ft | 493 kts | 111° |
| 2026-05-06 16:53 | 40.38236 | -73.56043 | 36911 ft | 481 kts | 135° |
| 2026-05-06 16:54 | 40.35926 | -73.53032 | 36900 ft | 458 kts | 158° |
| 2026-05-06 16:54 | 40.33142 | -73.51362 | 36912 ft | 428 kts | 181° |
| 2026-05-06 16:54 | 40.30309 | -73.51159 | 36914 ft | 389 kts | 205° |
| 2026-05-06 16:55 | 40.25232 | -73.53035 | 36905 ft | 373 kts | 216° |
| 2026-05-06 16:55 | 40.23145 | -73.54720 | 36919 ft | 340 kts | 235° |
| 2026-05-06 16:55 | 40.21450 | -73.56840 | 36919 ft | 339 kts | 236° |
| 2026-05-06 16:56 | 40.18421 | -73.61421 | 36912 ft | 321 kts | 251° |
| 2026-05-06 16:56 | 40.17693 | -73.64085 | 36902 ft | 306 kts | 267° |
| 2026-05-06 16:56 | 40.17662 | -73.66757 | 36911 ft | 287 kts | 281° |
| 2026-05-06 16:56 | 40.18201 | -73.69233 | 36909 ft | 281 kts | 292° |
| 2026-05-06 16:57 | 40.19190 | -73.71401 | 36911 ft | 282 kts | 302° |
| 2026-05-06 16:57 | 40.20591 | -73.73232 | 36912 ft | 288 kts | 313° |
| 2026-05-06 16:57 | 40.22341 | -73.74572 | 36902 ft | 295 kts | 326° |
| 2026-05-06 16:57 | 40.23635 | -73.75092 | 36905 ft | 292 kts | 334° |
| 2026-05-06 16:58 | 40.25639 | -73.75374 | 36871 ft | 290 kts | 343° |
| 2026-05-06 16:58 | 40.27645 | -73.75120 | 36792 ft | 290 kts | 354° |
| 2026-05-06 16:58 | 40.29577 | -73.74364 | 36631 ft | 288 kts | 4° |
| 2026-05-06 16:58 | 40.31350 | -73.73193 | 36394 ft | 284 kts | 13° |
| 2026-05-06 16:59 | 40.32938 | -73.71681 | 35956 ft | 278 kts | 23° |
| 2026-05-06 16:59 | 40.34168 | -73.70025 | 33400 ft | 222 kts | 7° |
| 2026-05-06 16:59 | 40.35675 | -73.69903 | 25448 ft | 269 kts | 327° |
| 2026-05-06 16:59 | 40.37703 | -73.72106 | 16333 ft | 505 kts | 304° |
| 2026-05-06 17:00 | 40.40071 | -73.76171 | 10458 ft | 582 kts | 301° |
| 2026-05-06 17:00 | 40.42347 | -73.80533 | 7695 ft | 574 kts | 299° |
| 2026-05-06 17:00 | 40.44334 | -73.84283 | 10638 ft | 411 kts | 301° |
| 2026-05-06 17:00 | 40.45887 | -73.86655 | 14702 ft | 288 kts | 304° |
| 2026-05-06 17:01 | 40.47177 | -73.88050 | 17045 ft | 197 kts | 313° |
| 2026-05-06 17:01 | 40.48237 | -73.88619 | 17844 ft | 138 kts | 333° |
| 2026-05-06 17:01 | 40.49233 | -73.88712 | 15064 ft | 200 kts | 349° |
| 2026-05-06 17:01 | 40.51195 | -73.88474 | 10542 ft | 353 kts | 2° |
| 2026-05-06 17:02 | 40.54162 | -73.87854 | 5894 ft | 499 kts | 9° |
| 2026-05-06 17:02 | 40.57610 | -73.86687 | 3808 ft | 513 kts | 14° |
| 2026-05-06 17:02 | 40.60906 | -73.85121 | 2294 ft | 504 kts | 21° |
| 2026-05-06 17:02 | 40.64033 | -73.83172 | 913 ft | 489 kts | 28° |
| 2026-05-06 17:03 | 40.66425 | -73.81337 | 130 ft | 14 kts | 53° |
| 2026-05-06 17:03 | 40.66428 | -73.81313 | 26 ft | 0 kts | 37° |
| 2026-05-06 17:03 | 40.66427 | -73.81314 | 24 ft | 0 kts | 37° |
| 2026-05-06 17:03 | 40.66427 | -73.81315 | 22 ft | 0 kts | 36° |
| 2026-05-06 17:04 | 40.66428 | -73.81317 | 19 ft | 0 kts | 24° |